Terminal Aerodrome Forecast
Issued by NWS

Home | Current Version | Previous Version | Graphics & Text | Print | Product List | Glossary On
Versions: 1 2 3 4 5 6 7 8 9 10 11 12 13 14 15 16 17 18 19 20 21
000
FTUS43 KIWX 220400 AAA
TAFSBN
TAF AMD
KSBN 220400Z 2204/2224 VRB03KT 4SM BR SCT040
      TEMPO 2204/2207 1SM BR SCT004
     FM220700 VRB03KT 1SM BR BKN008
      TEMPO 2207/2209 1/2SM FG BKN005
     FM220900 VRB03KT 1/2SM FG OVC004
     FM221600 07005KT 2SM BR BKN008
     FM221800 05008KT 6SM BR BKN020=

USA.gov is the U.S. government's official web portal to all federal, state and local government web resources and services.